sensor_id;sensor_type;location;lat;lon;timestamp;pressure;altitude;pressure_sealevel;temperature;humidity
28630;BME280;15817;42.130;24.762;2023-03-17T00:02:04;100123.19;;;6.48;91.87
28630;BME280;15817;42.130;24.762;2023-03-17T00:04:33;100127.53;;;6.43;92.08
28630;BME280;15817;42.130;24.762;2023-03-17T00:07:04;100131.88;;;6.41;92.43
28630;BME280;15817;42.130;24.762;2023-03-17T00:09:30;100126.63;;;6.42;92.71
28630;BME280;15817;42.130;24.762;2023-03-17T00:12:10;100143.50;;;6.52;92.76
28630;BME280;15817;42.130;24.762;2023-03-17T00:14:36;100136.31;;;6.42;92.92
28630;BME280;15817;42.130;24.762;2023-03-17T00:17:02;100120.47;;;6.43;93.16
28630;BME280;15817;42.130;24.762;2023-03-17T00:19:37;100127.44;;;6.38;93.37
28630;BME280;15817;42.130;24.762;2023-03-17T00:22:14;100123.00;;;6.36;93.58
28630;BME280;15817;42.130;24.762;2023-03-17T00:24:42;100130.13;;;6.41;93.74
28630;BME280;15817;42.130;24.762;2023-03-17T00:27:12;100132.72;;;6.38;93.79
28630;BME280;15817;42.130;24.762;2023-03-17T00:29:41;100133.59;;;6.37;93.97
28630;BME280;15817;42.130;24.762;2023-03-17T00:32:16;100123.03;;;6.37;94.26
28630;BME280;15817;42.130;24.762;2023-03-17T00:34:44;100123.09;;;6.42;94.15
28630;BME280;15817;42.130;24.762;2023-03-17T00:37:18;100134.59;;;6.44;94.16
28630;BME280;15817;42.130;24.762;2023-03-17T00:39:44;100129.28;;;6.42;94.24
28630;BME280;15817;42.130;24.762;2023-03-17T00:42:10;100130.09;;;6.40;94.50
28630;BME280;15817;42.130;24.762;2023-03-17T00:44:44;100125.66;;;6.37;94.36
28630;BME280;15817;42.130;24.762;2023-03-17T00:47:10;100125.53;;;6.28;94.55
28630;BME280;15817;42.130;24.762;2023-03-17T00:49:36;100128.28;;;6.34;94.58
28630;BME280;15817;42.130;24.762;2023-03-17T00:52:10;100127.41;;;6.37;94.41
28630;BME280;15817;42.130;24.762;2023-03-17T00:54:40;100133.59;;;6.37;94.35
28630;BME280;15817;42.130;24.762;2023-03-17T00:57:08;100133.47;;;6.30;94.76
28630;BME280;15817;42.130;24.762;2023-03-17T00:59:39;100124.69;;;6.31;94.55
28630;BME280;15817;42.130;24.762;2023-03-17T01:02:13;100139.72;;;6.36;94.57
28630;BME280;15817;42.130;24.762;2023-03-17T01:04:39;100138.84;;;6.34;94.74
28630;BME280;15817;42.130;24.762;2023-03-17T01:07:06;100147.63;;;6.35;94.93
28630;BME280;15817;42.130;24.762;2023-03-17T01:09:35;100144.97;;;6.32;94.77
28630;BME280;15817;42.130;24.762;2023-03-17T01:12:01;100157.25;;;6.30;94.82
28630;BME280;15817;42.130;24.762;2023-03-17T01:14:27;100153.69;;;6.28;94.94
28630;BME280;15817;42.130;24.762;2023-03-17T01:16:56;100167.97;;;6.39;94.82
28630;BME280;15817;42.130;24.762;2023-03-17T01:19:22;100157.28;;;6.31;94.70
28630;BME280;15817;42.130;24.762;2023-03-17T01:21:48;100156.22;;;6.20;95.06
28630;BME280;15817;42.130;24.762;2023-03-17T01:24:17;100153.59;;;6.20;95.13
28630;BME280;15817;42.130;24.762;2023-03-17T01:26:51;100152.75;;;6.23;94.81
28630;BME280;15817;42.130;24.762;2023-03-17T01:29:20;100164.19;;;6.25;95.20
28630;BME280;15817;42.130;24.762;2023-03-17T01:31:48;100165.06;;;6.24;94.88
28630;BME280;15817;42.130;24.762;2023-03-17T01:34:14;100158.94;;;6.26;94.86
28630;BME280;15817;42.130;24.762;2023-03-17T01:36:46;100169.47;;;6.25;94.41
28630;BME280;15817;42.130;24.762;2023-03-17T01:39:13;100160.66;;;6.24;94.81
28630;BME280;15817;42.130;24.762;2023-03-17T01:41:39;100171.41;;;6.33;94.19
28630;BME280;15817;42.130;24.762;2023-03-17T01:44:06;100164.25;;;6.28;94.01
28630;BME280;15817;42.130;24.762;2023-03-17T01:46:33;100172.28;;;6.32;93.80
28630;BME280;15817;42.130;24.762;2023-03-17T01:51:37;100175.88;;;6.39;93.38
28630;BME280;15817;42.130;24.762;2023-03-17T01:54:11;100175.84;;;6.37;92.95
28630;BME280;15817;42.130;24.762;2023-03-17T01:56:41;100175.81;;;6.36;92.70
28630;BME280;15817;42.130;24.762;2023-03-17T01:59:12;100170.50;;;6.33;92.95
28630;BME280;15817;42.130;24.762;2023-03-17T02:01:44;100179.44;;;6.41;92.52
28630;BME280;15817;42.130;24.762;2023-03-17T02:04:12;100174.06;;;6.36;92.37
28630;BME280;15817;42.130;24.762;2023-03-17T02:06:38;100184.81;;;6.45;92.13
28630;BME280;15817;42.130;24.762;2023-03-17T02:09:04;100187.44;;;6.47;91.75
28630;BME280;15817;42.130;24.762;2023-03-17T02:11:32;100188.22;;;6.40;91.64
28630;BME280;15817;42.130;24.762;2023-03-17T02:13:58;100191.88;;;6.48;91.69
28630;BME280;15817;42.130;24.762;2023-03-17T02:16:28;100187.44;;;6.47;91.00
28630;BME280;15817;42.130;24.762;2023-03-17T02:19:00;100183.88;;;6.42;90.89
28630;BME280;15817;42.130;24.762;2023-03-17T02:21:56;100192.81;;;6.51;90.66
28630;BME280;15817;42.130;24.762;2023-03-17T02:24:43;100185.69;;;6.44;90.29
28630;BME280;15817;42.130;24.762;2023-03-17T02:27:35;100193.63;;;6.47;89.97
28630;BME280;15817;42.130;24.762;2023-03-17T02:30:05;100199.03;;;6.55;89.95
28630;BME280;15817;42.130;24.762;2023-03-17T02:32:37;100191.97;;;6.54;89.50
28630;BME280;15817;42.130;24.762;2023-03-17T02:35:05;100207.94;;;6.62;89.32
28630;BME280;15817;42.130;24.762;2023-03-17T02:37:36;100206.13;;;6.59;88.98
28630;BME280;15817;42.130;24.762;2023-03-17T02:40:02;100210.53;;;6.59;88.95
28630;BME280;15817;42.130;24.762;2023-03-17T02:42:31;100202.50;;;6.51;88.94
28630;BME280;15817;42.130;24.762;2023-03-17T02:44:57;100220.19;;;6.55;88.92
28630;BME280;15817;42.130;24.762;2023-03-17T02:47:26;100211.34;;;6.53;88.34
28630;BME280;15817;42.130;24.762;2023-03-17T02:49:52;100219.34;;;6.58;88.43
28630;BME280;15817;42.130;24.762;2023-03-17T02:52:18;100217.56;;;6.57;88.16
28630;BME280;15817;42.130;24.762;2023-03-17T02:54:47;100216.66;;;6.54;88.06
28630;BME280;15817;42.130;24.762;2023-03-17T02:57:15;100212.22;;;6.53;87.84
28630;BME280;15817;42.130;24.762;2023-03-17T02:59:42;100217.56;;;6.58;87.95
28630;BME280;15817;42.130;24.762;2023-03-17T03:02:18;100230.88;;;6.63;87.57
28630;BME280;15817;42.130;24.762;2023-03-17T03:04:47;100220.22;;;6.58;87.56
28630;BME280;15817;42.130;24.762;2023-03-17T03:07:13;100229.91;;;6.58;87.78
28630;BME280;15817;42.130;24.762;2023-03-17T03:09:39;100231.66;;;6.59;87.40
28630;BME280;15817;42.130;24.762;2023-03-17T03:12:06;100235.22;;;6.61;86.97
28630;BME280;15817;42.130;24.762;2023-03-17T03:14:34;100229.06;;;6.60;86.67
28630;BME280;15817;42.130;24.762;2023-03-17T03:17:01;100228.16;;;6.60;86.80
28630;BME280;15817;42.130;24.762;2023-03-17T03:19:27;100232.59;;;6.61;87.06
28630;BME280;15817;42.130;24.762;2023-03-17T03:21:53;100243.19;;;6.62;86.43
28630;BME280;15817;42.130;24.762;2023-03-17T03:24:19;100247.63;;;6.65;86.12
28630;BME280;15817;42.130;24.762;2023-03-17T03:26:44;100248.56;;;6.67;86.07
28630;BME280;15817;42.130;24.762;2023-03-17T03:29:10;100236.16;;;6.63;86.11
28630;BME280;15817;42.130;24.762;2023-03-17T03:31:36;100243.25;;;6.65;85.40
28630;BME280;15817;42.130;24.762;2023-03-17T03:34:02;100252.97;;;6.69;85.54
28630;BME280;15817;42.130;24.762;2023-03-17T03:36:31;100248.59;;;6.68;85.29
28630;BME280;15817;42.130;24.762;2023-03-17T03:39:00;100238.00;;;6.67;85.31
28630;BME280;15817;42.130;24.762;2023-03-17T03:41:29;100241.53;;;6.67;84.84
28630;BME280;15817;42.130;24.762;2023-03-17T03:43:55;100245.91;;;6.67;85.27
28630;BME280;15817;42.130;24.762;2023-03-17T03:46:21;100253.91;;;6.71;84.67
28630;BME280;15817;42.130;24.762;2023-03-17T03:48:47;100242.41;;;6.68;84.60
28630;BME280;15817;42.130;24.762;2023-03-17T03:51:13;100250.41;;;6.72;84.26
28630;BME280;15817;42.130;24.762;2023-03-17T03:53:41;100248.63;;;6.71;84.26
28630;BME280;15817;42.130;24.762;2023-03-17T03:56:07;100259.28;;;6.76;84.11
28630;BME280;15817;42.130;24.762;2023-03-17T03:58:33;100247.69;;;6.68;84.09
28630;BME280;15817;42.130;24.762;2023-03-17T04:01:03;100257.44;;;6.72;84.17
28630;BME280;15817;42.130;24.762;2023-03-17T04:03:32;100252.09;;;6.67;84.17
28630;BME280;15817;42.130;24.762;2023-03-17T04:05:58;100250.34;;;6.68;83.86
28630;BME280;15817;42.130;24.762;2023-03-17T04:08:26;100253.91;;;6.71;83.86
28630;BME280;15817;42.130;24.762;2023-03-17T04:10:52;100262.72;;;6.72;83.74
28630;BME280;15817;42.130;24.762;2023-03-17T04:13:17;100269.72;;;6.70;83.63
28630;BME280;15817;42.130;24.762;2023-03-17T04:15:43;100269.72;;;6.70;83.39
28630;BME280;15817;42.130;24.762;2023-03-17T04:18:09;100275.03;;;6.68;83.31
28630;BME280;15817;42.130;24.762;2023-03-17T04:20:36;100269.63;;;6.62;83.46
28630;BME280;15817;42.130;24.762;2023-03-17T04:23:04;100281.13;;;6.66;83.37
28630;BME280;15817;42.130;24.762;2023-03-17T04:25:30;100282.00;;;6.65;83.64
28630;BME280;15817;42.130;24.762;2023-03-17T04:27:59;100278.44;;;6.63;83.29
28630;BME280;15817;42.130;24.762;2023-03-17T04:30:25;100282.84;;;6.64;83.39
28630;BME280;15817;42.130;24.762;2023-03-17T04:32:51;100297.91;;;6.68;83.03
28630;BME280;15817;42.130;24.762;2023-03-17T04:35:19;100298.78;;;6.67;83.20
28630;BME280;15817;42.130;24.762;2023-03-17T04:37:47;100313.88;;;6.74;82.95
28630;BME280;15817;42.130;24.762;2023-03-17T04:40:25;100297.00;;;6.66;82.74
28630;BME280;15817;42.130;24.762;2023-03-17T04:43:12;100303.19;;;6.69;82.51
28630;BME280;15817;42.130;24.762;2023-03-17T04:49:03;100312.03;;;6.71;82.22
28630;BME280;15817;42.130;24.762;2023-03-17T04:51:35;100311.13;;;6.69;82.36
28630;BME280;15817;42.130;24.762;2023-03-17T04:54:01;100321.91;;;6.80;82.29
28630;BME280;15817;42.130;24.762;2023-03-17T04:56:39;100324.53;;;6.78;81.98
28630;BME280;15817;42.130;24.762;2023-03-17T04:59:19;100328.94;;;6.81;82.14
28630;BME280;15817;42.130;24.762;2023-03-17T05:01:48;100319.19;;;6.75;81.78
28630;BME280;15817;42.130;24.762;2023-03-17T05:04:17;100329.00;;;6.84;81.89
28630;BME280;15817;42.130;24.762;2023-03-17T05:06:43;100333.41;;;6.83;81.91
28630;BME280;15817;42.130;24.762;2023-03-17T05:09:13;100341.28;;;6.79;81.28
28630;BME280;15817;42.130;24.762;2023-03-17T05:11:39;100328.88;;;6.76;81.31
28630;BME280;15817;42.130;24.762;2023-03-17T05:14:08;100349.28;;;6.85;81.35
28630;BME280;15817;42.130;24.762;2023-03-17T05:16:37;100347.41;;;6.78;81.30
28630;BME280;15817;42.130;24.762;2023-03-17T05:19:03;100351.00;;;6.81;80.97
28630;BME280;15817;42.130;24.762;2023-03-17T05:21:32;100350.09;;;6.81;81.22
28630;BME280;15817;42.130;24.762;2023-03-17T05:23:57;100351.03;;;6.84;80.99
28630;BME280;15817;42.130;24.762;2023-03-17T05:26:24;100353.66;;;6.83;81.01
28630;BME280;15817;42.130;24.762;2023-03-17T05:28:49;100352.84;;;6.87;80.67
28630;BME280;15817;42.130;24.762;2023-03-17T05:31:33;100361.72;;;6.89;80.65
28630;BME280;15817;42.130;24.762;2023-03-17T05:33:59;100358.09;;;6.84;80.15
28630;BME280;15817;42.130;24.762;2023-03-17T05:36:28;100363.38;;;6.84;80.30
28630;BME280;15817;42.130;24.762;2023-03-17T05:39:00;100362.47;;;6.83;79.93
28630;BME280;15817;42.130;24.762;2023-03-17T05:41:29;100370.47;;;6.86;79.85
28630;BME280;15817;42.130;24.762;2023-03-17T05:43:58;100359.94;;;6.88;79.83
28630;BME280;15817;42.130;24.762;2023-03-17T05:46:27;100376.78;;;6.95;80.08
28630;BME280;15817;42.130;24.762;2023-03-17T05:48:59;100369.72;;;6.92;79.96
28630;BME280;15817;42.130;24.762;2023-03-17T05:51:25;100376.84;;;6.98;79.67
28630;BME280;15817;42.130;24.762;2023-03-17T05:53:52;100374.31;;;7.04;79.60
28630;BME280;15817;42.130;24.762;2023-03-17T05:56:20;100377.84;;;7.06;79.13
28630;BME280;15817;42.130;24.762;2023-03-17T05:58:51;100374.25;;;7.01;79.23
28630;BME280;15817;42.130;24.762;2023-03-17T06:01:17;100385.75;;;7.04;79.27
28630;BME280;15817;42.130;24.762;2023-03-17T06:03:43;100391.22;;;7.13;78.64
28630;BME280;15817;42.130;24.762;2023-03-17T06:06:08;100393.88;;;7.15;78.83
28630;BME280;15817;42.130;24.762;2023-03-17T06:08:35;100398.31;;;7.17;78.31
28630;BME280;15817;42.130;24.762;2023-03-17T06:11:00;100415.16;;;7.22;78.00
28630;BME280;15817;42.130;24.762;2023-03-17T06:13:26;100401.00;;;7.20;77.72
28630;BME280;15817;42.130;24.762;2023-03-17T06:16:01;100417.00;;;7.26;77.82
28630;BME280;15817;42.130;24.762;2023-03-17T06:18:39;100413.44;;;7.24;77.37
28630;BME280;15817;42.130;24.762;2023-03-17T06:21:05;100401.09;;;7.25;77.64
28630;BME280;15817;42.130;24.762;2023-03-17T06:23:31;100402.94;;;7.31;77.53
28630;BME280;15817;42.130;24.762;2023-03-17T06:26:00;100412.63;;;7.30;77.15
28630;BME280;15817;42.130;24.762;2023-03-17T06:28:29;100415.31;;;7.33;77.52
28630;BME280;15817;42.130;24.762;2023-03-17T06:31:02;100421.56;;;7.37;77.44
28630;BME280;15817;42.130;24.762;2023-03-17T06:33:37;100420.72;;;7.38;76.91
28630;BME280;15817;42.130;24.762;2023-03-17T06:36:11;100423.38;;;7.41;76.97
28630;BME280;15817;42.130;24.762;2023-03-17T06:38:51;100416.25;;;7.35;76.47
28630;BME280;15817;42.130;24.762;2023-03-17T06:41:18;100427.88;;;7.45;76.49
28630;BME280;15817;42.130;24.762;2023-03-17T06:43:50;100437.63;;;7.49;76.58
28630;BME280;15817;42.130;24.762;2023-03-17T06:46:16;100437.59;;;7.46;76.51
28630;BME280;15817;42.130;24.762;2023-03-17T06:48:46;100418.13;;;7.44;76.38
28630;BME280;15817;42.130;24.762;2023-03-17T06:52:01;100425.28;;;7.48;76.20
28630;BME280;15817;42.130;24.762;2023-03-17T06:54:27;100419.13;;;7.49;76.23
28630;BME280;15817;42.130;24.762;2023-03-17T06:57:01;100420.06;;;7.54;76.53
28630;BME280;15817;42.130;24.762;2023-03-17T06:59:59;100434.34;;;7.65;76.16
28630;BME280;15817;42.130;24.762;2023-03-17T07:02:25;100437.09;;;7.71;76.38
28630;BME280;15817;42.130;24.762;2023-03-17T07:05:23;100428.31;;;7.75;76.90
28630;BME280;15817;42.130;24.762;2023-03-17T07:07:54;100439.03;;;7.83;76.40
28630;BME280;15817;42.130;24.762;2023-03-17T07:10:20;100449.75;;;7.92;76.12
28630;BME280;15817;42.130;24.762;2023-03-17T07:12:49;100442.63;;;7.89;75.61
28630;BME280;15817;42.130;24.762;2023-03-17T07:16:01;100442.84;;;8.03;75.72
28630;BME280;15817;42.130;24.762;2023-03-17T07:18:30;100450.84;;;8.09;73.79
28630;BME280;15817;42.130;24.762;2023-03-17T07:21:04;100442.19;;;8.22;73.80
28630;BME280;15817;42.130;24.762;2023-03-17T07:23:48;100433.66;;;8.42;72.36
28630;BME280;15817;42.130;24.762;2023-03-17T07:26:14;100442.69;;;8.60;71.70
28630;BME280;15817;42.130;24.762;2023-03-17T07:28:43;100449.81;;;8.63;70.68
28630;BME280;15817;42.130;24.762;2023-03-17T07:31:38;100445.84;;;9.07;70.56
28630;BME280;15817;42.130;24.762;2023-03-17T07:34:17;100450.59;;;9.45;67.74
28630;BME280;15817;42.130;24.762;2023-03-17T07:36:43;100450.59;;;9.48;67.07
28630;BME280;15817;42.130;24.762;2023-03-17T07:39:15;100460.41;;;9.55;66.25
28630;BME280;15817;42.130;24.762;2023-03-17T07:41:41;100459.53;;;9.56;65.41
28630;BME280;15817;42.130;24.762;2023-03-17T07:44:18;100450.41;;;9.27;66.12
28630;BME280;15817;42.130;24.762;2023-03-17T07:46:44;100449.28;;;8.99;66.90
28630;BME280;15817;42.130;24.762;2023-03-17T07:49:13;100452.94;;;9.12;66.72
28630;BME280;15817;42.130;24.762;2023-03-17T07:51:43;100460.13;;;9.22;66.31
28630;BME280;15817;42.130;24.762;2023-03-17T07:54:18;100461.16;;;9.39;65.29
28630;BME280;15817;42.130;24.762;2023-03-17T07:56:44;100447.06;;;9.51;64.09
28630;BME280;15817;42.130;24.762;2023-03-17T07:59:13;100455.13;;;9.63;62.89
28630;BME280;15817;42.130;24.762;2023-03-17T08:01:42;100448.97;;;9.67;60.55
28630;BME280;15817;42.130;24.762;2023-03-17T08:04:11;100447.94;;;9.50;60.81
28630;BME280;15817;42.130;24.762;2023-03-17T08:06:38;100439.25;;;9.70;60.09
28630;BME280;15817;42.130;24.762;2023-03-17T08:09:27;100456.06;;;9.69;57.38
28630;BME280;15817;42.130;24.762;2023-03-17T08:11:53;100456.94;;;9.70;56.26
28630;BME280;15817;42.130;24.762;2023-03-17T08:14:21;100453.41;;;9.71;55.82
28630;BME280;15817;42.130;24.762;2023-03-17T08:16:50;100456.16;;;9.85;55.38
28630;BME280;15817;42.130;24.762;2023-03-17T08:19:30;100468.06;;;10.46;55.20
28630;BME280;15817;42.130;24.762;2023-03-17T08:22:17;100451.31;;;10.77;54.79
28630;BME280;15817;42.130;24.762;2023-03-17T08:24:42;100449.59;;;10.95;54.15
28630;BME280;15817;42.130;24.762;2023-03-17T08:27:11;100447.84;;;11.18;53.17
28630;BME280;15817;42.130;24.762;2023-03-17T08:29:40;100455.84;;;11.30;51.80
28630;BME280;15817;42.130;24.762;2023-03-17T08:32:16;100446.03;;;11.55;50.83
28630;BME280;15817;42.130;24.762;2023-03-17T08:34:45;100444.28;;;11.87;51.20
28630;BME280;15817;42.130;24.762;2023-03-17T08:37:14;100440.69;;;12.07;49.91
28630;BME280;15817;42.130;24.762;2023-03-17T08:39:42;100436.25;;;12.00;49.18
28630;BME280;15817;42.130;24.762;2023-03-17T08:42:20;100443.34;;;12.02;49.79
28630;BME280;15817;42.130;24.762;2023-03-17T08:44:46;100443.31;;;12.13;49.37
28630;BME280;15817;42.130;24.762;2023-03-17T08:47:12;100430.88;;;12.16;49.15
28630;BME280;15817;42.130;24.762;2023-03-17T08:50:04;100430.91;;;12.06;49.40
28630;BME280;15817;42.130;24.762;2023-03-17T08:52:34;100425.44;;;12.44;48.54
28630;BME280;15817;42.130;24.762;2023-03-17T08:55:08;100425.38;;;12.51;47.43
28630;BME280;15817;42.130;24.762;2023-03-17T08:57:35;100429.81;;;12.54;46.81
28630;BME280;15817;42.130;24.762;2023-03-17T09:00:01;100422.94;;;11.95;47.05
28630;BME280;15817;42.130;24.762;2023-03-17T09:02:40;100430.97;;;11.63;48.71
28630;BME280;15817;42.130;24.762;2023-03-17T09:05:09;100421.19;;;11.22;50.00
28630;BME280;15817;42.130;24.762;2023-03-17T09:07:36;100417.63;;;10.99;51.19
28630;BME280;15817;42.130;24.762;2023-03-17T09:10:20;100432.72;;;10.93;51.16
28630;BME280;15817;42.130;24.762;2023-03-17T09:12:55;100414.03;;;10.76;50.76
28630;BME280;15817;42.130;24.762;2023-03-17T09:15:27;100419.41;;;10.82;52.45
28630;BME280;15817;42.130;24.762;2023-03-17T09:17:53;100411.38;;;10.74;52.54
28630;BME280;15817;42.130;24.762;2023-03-17T09:20:19;100414.94;;;10.76;53.21
28630;BME280;15817;42.130;24.762;2023-03-17T09:22:48;100414.94;;;10.78;53.79
28630;BME280;15817;42.130;24.762;2023-03-17T09:25:16;100418.50;;;10.72;54.20
28630;BME280;15817;42.130;24.762;2023-03-17T09:27:44;100414.94;;;10.70;55.22
28630;BME280;15817;42.130;24.762;2023-03-17T09:30:10;100416.72;;;10.73;54.86
28630;BME280;15817;42.130;24.762;2023-03-17T09:32:38;100425.53;;;10.63;54.26
28630;BME280;15817;42.130;24.762;2023-03-17T09:35:11;100414.03;;;10.64;54.48
28630;BME280;15817;42.130;24.762;2023-03-17T09:37:39;100410.47;;;10.62;54.19
28630;BME280;15817;42.130;24.762;2023-03-17T09:40:05;100411.34;;;10.64;54.29
28630;BME280;15817;42.130;24.762;2023-03-17T09:45:37;100426.50;;;10.89;53.46
28630;BME280;15817;42.130;24.762;2023-03-17T09:56:13;100426.47;;;10.86;52.08
28630;BME280;15817;42.130;24.762;2023-03-17T09:58:50;100422.06;;;10.91;51.84
28630;BME280;15817;42.130;24.762;2023-03-17T10:01:23;100408.75;;;10.97;50.56
28630;BME280;15817;42.130;24.762;2023-03-17T10:03:49;100412.31;;;10.98;50.36
28630;BME280;15817;42.130;24.762;2023-03-17T10:11:45;100422.06;;;10.80;49.18
28630;BME280;15817;42.130;24.762;2023-03-17T10:17:25;100415.81;;;10.74;49.38
28630;BME280;15817;42.130;24.762;2023-03-17T10:20:04;100402.50;;;10.63;49.77
28630;BME280;15817;42.130;24.762;2023-03-17T10:22:38;100409.63;;;10.70;50.29
28630;BME280;15817;42.130;24.762;2023-03-17T10:25:23;100419.41;;;10.80;50.58
28630;BME280;15817;42.130;24.762;2023-03-17T10:28:01;100401.66;;;10.79;50.55
28630;BME280;15817;42.130;24.762;2023-03-17T10:30:33;100414.97;;;10.90;50.03
28630;BME280;15817;42.130;24.762;2023-03-17T10:33:03;100401.66;;;10.92;50.40
28630;BME280;15817;42.130;24.762;2023-03-17T10:35:40;100391.91;;;11.00;51.03
28630;BME280;15817;42.130;24.762;2023-03-17T10:38:20;100392.81;;;11.06;51.15
28630;BME280;15817;42.130;24.762;2023-03-17T10:41:00;100405.22;;;11.13;50.00
28630;BME280;15817;42.130;24.762;2023-03-17T10:43:43;100385.69;;;11.08;49.90
28630;BME280;15817;42.130;24.762;2023-03-17T10:46:25;100383.03;;;11.14;50.42
28630;BME280;15817;42.130;24.762;2023-03-17T10:49:08;100388.34;;;11.22;50.05
28630;BME280;15817;42.130;24.762;2023-03-17T10:51:58;100390.13;;;11.20;50.13
28630;BME280;15817;42.130;24.762;2023-03-17T10:54:35;100385.72;;;11.16;50.45
28630;BME280;15817;42.130;24.762;2023-03-17T10:57:06;100385.72;;;11.13;49.52
28630;BME280;15817;42.130;24.762;2023-03-17T10:59:52;100394.56;;;11.10;49.97
28630;BME280;15817;42.130;24.762;2023-03-17T11:02:36;100386.59;;;11.04;50.28
28630;BME280;15817;42.130;24.762;2023-03-17T11:05:38;100382.13;;;10.99;51.01
28630;BME280;15817;42.130;24.762;2023-03-17T11:08:13;100386.56;;;10.98;51.10
28630;BME280;15817;42.130;24.762;2023-03-17T11:10:55;100382.13;;;10.99;51.01
28630;BME280;15817;42.130;24.762;2023-03-17T11:13:31;100373.28;;;10.98;51.40
28630;BME280;15817;42.130;24.762;2023-03-17T11:16:16;100379.50;;;11.06;51.93
28630;BME280;15817;42.130;24.762;2023-03-17T11:19:12;100375.06;;;11.13;50.74
28630;BME280;15817;42.130;24.762;2023-03-17T11:22:09;100375.06;;;11.19;50.49
28630;BME280;15817;42.130;24.762;2023-03-17T11:25:14;100367.97;;;11.18;49.89
28630;BME280;15817;42.130;24.762;2023-03-17T12:00:36;100361.72;;;11.51;48.98
28630;BME280;15817;42.130;24.762;2023-03-17T12:06:41;100357.28;;;11.47;48.92
28630;BME280;15817;42.130;24.762;2023-03-17T12:10:35;100351.94;;;11.44;48.77
28630;BME280;15817;42.130;24.762;2023-03-17T12:16:15;100351.94;;;11.45;49.17
28630;BME280;15817;42.130;24.762;2023-03-17T12:19:13;100351.94;;;11.45;48.76
28630;BME280;15817;42.130;24.762;2023-03-17T12:22:35;100358.16;;;11.44;48.79
28630;BME280;15817;42.130;24.762;2023-03-17T12:25:58;100352.84;;;11.40;49.29
28630;BME280;15817;42.130;24.762;2023-03-17T12:31:31;100343.97;;;11.32;49.35
28630;BME280;15817;42.130;24.762;2023-03-17T12:34:18;100341.31;;;11.32;49.34
28630;BME280;15817;42.130;24.762;2023-03-17T12:36:52;100356.41;;;11.31;49.37
28630;BME280;15817;42.130;24.762;2023-03-17T12:39:33;100348.41;;;11.33;49.10
28630;BME280;15817;42.130;24.762;2023-03-17T12:51:45;100353.75;;;11.36;48.42
28630;BME280;15817;42.130;24.762;2023-03-17T12:54:28;100349.31;;;11.39;47.95
28630;BME280;15817;42.130;24.762;2023-03-17T12:57:27;100342.19;;;11.40;48.39
28630;BME280;15817;42.130;24.762;2023-03-17T13:00:16;100340.41;;;11.46;49.36
28630;BME280;15817;42.130;24.762;2023-03-17T13:05:44;100342.19;;;11.49;48.39
28630;BME280;15817;42.130;24.762;2023-03-17T13:08:24;100348.41;;;11.52;48.53
28630;BME280;15817;42.130;24.762;2023-03-17T13:11:27;100343.06;;;11.49;48.32
28630;BME280;15817;42.130;24.762;2023-03-17T13:14:23;100340.41;;;11.48;48.58
28630;BME280;15817;42.130;24.762;2023-03-17T13:26:59;100342.19;;;11.52;47.59
28630;BME280;15817;42.130;24.762;2023-03-17T13:34:48;100334.19;;;11.52;48.18
28630;BME280;15817;42.130;24.762;2023-03-17T13:41:57;100347.44;;;11.69;47.71
28630;BME280;15817;42.130;24.762;2023-03-17T13:47:44;100334.13;;;11.75;47.62
28630;BME280;15817;42.130;24.762;2023-03-17T13:50:24;100339.44;;;11.75;47.95
28630;BME280;15817;42.130;24.762;2023-03-17T14:03:18;100349.22;;;11.79;48.86
28630;BME280;15817;42.130;24.762;2023-03-17T14:05:55;100339.44;;;11.70;48.58
28630;BME280;15817;42.130;24.762;2023-03-17T14:08:37;100346.56;;;11.71;47.85
28630;BME280;15817;42.130;24.762;2023-03-17T14:11:18;100339.53;;;11.53;47.44
28630;BME280;15817;42.130;24.762;2023-03-17T14:14:28;100353.69;;;11.57;48.30
28630;BME280;15817;42.130;24.762;2023-03-17T14:17:27;100339.50;;;11.49;49.40
28630;BME280;15817;42.130;24.762;2023-03-17T14:23:07;100356.38;;;11.43;49.11
28630;BME280;15817;42.130;24.762;2023-03-17T14:29:34;100352.84;;;11.38;49.11
28630;BME280;15817;42.130;24.762;2023-03-17T14:32:40;100346.63;;;11.32;48.92
28630;BME280;15817;42.130;24.762;2023-03-17T14:35:27;100353.75;;;11.28;48.45
28630;BME280;15817;42.130;24.762;2023-03-17T14:42:48;100360.84;;;11.11;48.50
28630;BME280;15817;42.130;24.762;2023-03-17T14:49:14;100351.97;;;10.98;48.61
28630;BME280;15817;42.130;24.762;2023-03-17T14:52:41;100354.66;;;11.00;49.15
28630;BME280;15817;42.130;24.762;2023-03-17T15:39:52;100366.13;;;10.62;49.45
28630;BME280;15817;42.130;24.762;2023-03-17T15:58:19;100384.72;;;10.36;50.08
28630;BME280;15817;42.130;24.762;2023-03-17T16:19:27;100410.28;;;10.14;51.57
28630;BME280;15817;42.130;24.762;2023-03-17T16:26:08;100410.28;;;10.14;51.79
28630;BME280;15817;42.130;24.762;2023-03-17T16:29:29;100418.22;;;10.08;52.06
28630;BME280;15817;42.130;24.762;2023-03-17T16:32:08;100433.25;;;10.00;51.55
28630;BME280;15817;42.130;24.762;2023-03-17T16:34:43;100427.06;;;10.03;52.38
28630;BME280;15817;42.130;24.762;2023-03-17T16:37:32;100415.50;;;9.98;52.29
28630;BME280;15817;42.130;24.762;2023-03-17T16:44:26;100435.97;;;10.11;52.96
28630;BME280;15817;42.130;24.762;2023-03-17T17:04:28;100447.34;;;9.89;52.80
28630;BME280;15817;42.130;24.762;2023-03-17T17:13:48;100466.88;;;9.98;52.74
28630;BME280;15817;42.130;24.762;2023-03-17T17:16:33;100468.59;;;9.87;53.15
28630;BME280;15817;42.130;24.762;2023-03-17T17:19:00;100464.13;;;9.83;53.18
28630;BME280;15817;42.130;24.762;2023-03-17T17:21:30;100474.75;;;9.80;53.15